createdAt,value
2023-05-21T00:00:21.600Z,59.72
2023-05-21T00:01:27.213Z,59.46
2023-05-21T00:02:33.118Z,59.33
2023-05-21T00:03:39.123Z,59.74
2023-05-21T00:04:44.628Z,59.61
2023-05-21T00:05:50.473Z,59.44
2023-05-21T00:06:55.966Z,59.62
2023-05-21T00:08:01.477Z,59.74
2023-05-21T00:09:06.955Z,59.58
2023-05-21T00:10:12.442Z,59.35
2023-05-21T00:11:17.917Z,59.21
2023-05-21T00:12:23.431Z,59.61
2023-05-21T00:13:28.887Z,59.65
2023-05-21T00:14:34.363Z,59.66
2023-05-21T00:15:40.270Z,59.87
2023-05-21T00:16:45.910Z,59.19
2023-05-21T00:17:51.663Z,59.55
2023-05-21T00:18:57.448Z,59.74
2023-05-21T00:20:03.159Z,59.63
2023-05-21T00:21:08.632Z,59.94
2023-05-21T00:22:14.104Z,59.37
2023-05-21T00:23:19.584Z,59.33
2023-05-21T00:24:25.223Z,59.24
2023-05-21T00:25:30.697Z,59.38
2023-05-21T00:26:36.150Z,59.78
2023-05-21T00:27:41.645Z,59.59
2023-05-21T00:28:47.114Z,59.66
2023-05-21T00:29:52.573Z,59.7
2023-05-21T00:30:58.510Z,59.75
2023-05-21T00:32:04.172Z,59.76
2023-05-21T00:33:09.846Z,59.68
2023-05-21T00:34:15.334Z,59.36
2023-05-21T00:35:20.788Z,59.83
2023-05-21T00:36:26.330Z,59.51
2023-05-21T00:37:31.831Z,59.51
2023-05-21T00:38:37.297Z,59.5
2023-05-21T00:39:42.737Z,59.79
2023-05-21T00:40:48.214Z,59.88
2023-05-21T00:41:53.682Z,59.97
2023-05-21T00:42:59.161Z,59.97
2023-05-21T00:44:04.618Z,59.94
2023-05-21T00:45:10.126Z,59.86
2023-05-21T00:46:15.718Z,60
2023-05-21T00:47:21.303Z,60.03
2023-05-21T00:48:26.789Z,59.55
2023-05-21T00:49:32.270Z,60.04
2023-05-21T00:50:37.716Z,59.98
2023-05-21T00:51:43.179Z,59.65
2023-05-21T00:52:48.663Z,59.8
2023-05-21T00:53:54.128Z,59.89
2023-05-21T00:54:59.606Z,60.01
2023-05-21T00:56:05.075Z,60.01
2023-05-21T00:57:10.546Z,60.01
2023-05-21T00:58:16.002Z,59.93
2023-05-21T00:59:21.461Z,59.56
2023-05-21T01:00:26.908Z,59.98
2023-05-21T01:01:32.529Z,59.95
2023-05-21T01:02:38.347Z,60.07
2023-05-21T01:03:44.154Z,60.06
2023-05-21T01:04:49.645Z,59.87
2023-05-21T01:05:55.106Z,60
2023-05-21T01:07:00.672Z,59.98
2023-05-21T01:08:06.130Z,60.09
2023-05-21T01:09:11.604Z,59.92
2023-05-21T01:10:17.092Z,59.84
2023-05-21T01:11:22.544Z,59.71
2023-05-21T01:12:30.511Z,59.27
2023-05-21T01:13:35.997Z,59.69
2023-05-21T01:14:41.473Z,59.55
2023-05-21T01:15:46.966Z,59.85
2023-05-21T01:16:52.756Z,59.56
2023-05-21T01:17:58.485Z,59.6
2023-05-21T01:19:04.331Z,59.85
2023-05-21T01:20:12.038Z,59.56
2023-05-21T01:21:17.584Z,59.66
2023-05-21T01:22:23.112Z,59.34
2023-05-21T01:23:28.576Z,59.68
2023-05-21T01:24:34.064Z,59.82
2023-05-21T01:25:40.196Z,59.98
2023-05-21T01:26:45.757Z,59.96
2023-05-21T01:27:51.210Z,59.55
2023-05-21T01:28:56.693Z,59.63
2023-05-21T01:30:02.144Z,59.95
2023-05-21T01:31:07.640Z,59.92
2023-05-21T01:32:13.184Z,59.81
2023-05-21T01:33:19.167Z,60.03
2023-05-21T01:34:25.096Z,59.7
2023-05-21T01:35:30.583Z,59.95
2023-05-21T01:36:36.078Z,60
2023-05-21T01:37:41.534Z,60.11
2023-05-21T01:38:46.998Z,59.82
2023-05-21T01:39:52.454Z,60.22
2023-05-21T01:40:57.946Z,60
2023-05-21T01:42:03.413Z,60.24
2023-05-21T01:43:08.907Z,60.15
2023-05-21T01:44:14.615Z,60.2
2023-05-21T01:45:20.080Z,60.25
2023-05-21T01:46:25.655Z,60.04
2023-05-21T01:47:31.361Z,59.92
2023-05-21T01:48:36.839Z,60.29
2023-05-21T01:49:42.293Z,60.04
2023-05-21T01:50:47.744Z,59.98
2023-05-21T01:51:53.185Z,59.86
2023-05-21T01:52:58.644Z,60.17
2023-05-21T01:54:04.082Z,60.35
2023-05-21T01:55:09.561Z,60.05
2023-05-21T01:56:15.077Z,60.18
2023-05-21T01:57:20.517Z,60.2
2023-05-21T01:58:25.975Z,60.25
2023-05-21T01:59:31.437Z,60.42
2023-05-21T02:00:36.898Z,59.9
2023-05-21T02:01:42.484Z,60.16
2023-05-21T02:02:48.155Z,60.07
2023-05-21T02:03:54.095Z,60.25
2023-05-21T02:04:59.575Z,60.15
2023-05-21T02:06:05.017Z,59.79
2023-05-21T02:07:10.513Z,60.01
2023-05-21T02:08:15.964Z,60.43
2023-05-21T02:09:21.432Z,59.96
2023-05-21T02:10:26.934Z,59.97
2023-05-21T02:11:32.398Z,59.93
2023-05-21T02:12:37.851Z,60.15
2023-05-21T02:13:43.301Z,59.95
2023-05-21T02:14:48.761Z,59.68
2023-05-21T02:15:54.296Z,59.85
2023-05-21T02:16:59.765Z,59.87
2023-05-21T02:18:05.418Z,60.03
2023-05-21T02:19:11.138Z,60.13
2023-05-21T02:20:16.848Z,60.3
2023-05-21T02:21:22.322Z,60.37
2023-05-21T02:22:27.777Z,60.2
2023-05-21T02:23:33.245Z,59.95
2023-05-21T02:24:38.749Z,59.93
2023-05-21T02:25:44.214Z,60.15
2023-05-21T02:26:49.697Z,59.88
2023-05-21T02:27:55.270Z,59.89
2023-05-21T02:29:00.791Z,59.75
2023-05-21T02:30:06.311Z,59.69
2023-05-21T02:31:11.790Z,59.95
2023-05-21T02:32:17.349Z,60.44
2023-05-21T02:33:22.943Z,60.06
2023-05-21T02:34:28.798Z,59.73
2023-05-21T02:35:34.571Z,59.76
2023-05-21T02:36:40.183Z,59.84
2023-05-21T02:37:51.032Z,60.04
2023-05-21T02:38:56.522Z,59.72
2023-05-21T02:40:02.005Z,60.11
2023-05-21T02:41:07.468Z,60.09
2023-05-21T02:42:13.053Z,59.98
2023-05-21T02:43:19.190Z,60.11
2023-05-21T02:44:24.695Z,60.44
2023-05-21T02:45:30.191Z,60.1
2023-05-21T02:46:35.729Z,60.14
2023-05-21T02:47:41.608Z,60.31
2023-05-21T02:48:47.194Z,60.25
2023-05-21T02:49:52.670Z,60.09
2023-05-21T02:50:58.155Z,60.6
2023-05-21T02:52:03.602Z,60.37
2023-05-21T02:53:09.089Z,60.48
2023-05-21T02:54:14.589Z,60.13
2023-05-21T02:55:20.048Z,59.85
2023-05-21T02:56:25.553Z,60.12
2023-05-21T02:57:31.011Z,60.23
2023-05-21T02:58:36.466Z,59.88
2023-05-21T02:59:41.977Z,60.4
2023-05-21T03:00:47.496Z,60.04
2023-05-21T03:01:53.210Z,60.32
2023-05-21T03:02:59.084Z,60.3
2023-05-21T03:04:04.609Z,60.26
2023-05-21T03:05:10.084Z,60.19
2023-05-21T03:06:15.520Z,60.16
2023-05-21T03:07:20.986Z,60.26
2023-05-21T03:08:26.434Z,60.34
2023-05-21T03:09:31.935Z,60.27
2023-05-21T03:10:37.403Z,60.31
2023-05-21T03:11:42.825Z,60.33
2023-05-21T03:12:48.294Z,59.94
2023-05-21T03:13:53.772Z,60.25
2023-05-21T03:14:59.375Z,60.04
2023-05-21T03:16:04.853Z,60
2023-05-21T03:17:10.446Z,60.13
2023-05-21T03:18:16.050Z,60.43
2023-05-21T03:19:21.609Z,60.56
2023-05-21T03:20:27.121Z,60.4
2023-05-21T03:21:32.591Z,60.48
2023-05-21T03:22:38.095Z,60.65
2023-05-21T03:23:43.576Z,60.76
2023-05-21T03:24:49.036Z,60.54
2023-05-21T03:25:54.569Z,60.54
2023-05-21T03:27:00.118Z,60.32
2023-05-21T03:28:05.648Z,60.14
2023-05-21T03:29:11.180Z,60.06
2023-05-21T03:30:16.684Z,60.29
2023-05-21T03:31:22.320Z,60.53
2023-05-21T03:32:28.074Z,60.66
2023-05-21T03:33:33.581Z,60.58
2023-05-21T03:34:39.030Z,60.5
2023-05-21T03:35:44.606Z,60.59
2023-05-21T03:36:50.075Z,60.76
2023-05-21T03:37:55.590Z,60.42
2023-05-21T03:39:01.071Z,60.59
2023-05-21T03:40:06.546Z,60.47
2023-05-21T03:41:11.989Z,60.31
2023-05-21T03:42:17.483Z,60.48
2023-05-21T03:43:22.974Z,60.77
2023-05-21T03:44:28.452Z,60.79
2023-05-21T03:45:34.145Z,60.54
2023-05-21T03:46:39.895Z,60.52
2023-05-21T03:47:45.526Z,60.38
2023-05-21T03:48:51.046Z,60.44
2023-05-21T03:49:56.545Z,60.86
2023-05-21T03:51:02.031Z,60.81
2023-05-21T03:52:07.536Z,60.89
2023-05-21T03:53:13.104Z,60.69
2023-05-21T03:54:18.579Z,60.73
2023-05-21T03:55:24.064Z,61.02
2023-05-21T03:56:29.553Z,60.2
2023-05-21T03:57:35.028Z,60.49
2023-05-21T03:58:40.541Z,60.74
2023-05-21T03:59:45.968Z,60.66
2023-05-21T04:00:51.445Z,60.57
2023-05-21T04:01:56.927Z,60.72
2023-05-21T04:03:02.653Z,60.76
2023-05-21T04:04:08.610Z,60.76
2023-05-21T04:05:14.137Z,60.45
2023-05-21T04:06:19.620Z,60.71
2023-05-21T04:07:25.067Z,60.73
2023-05-21T04:08:30.564Z,60.59
2023-05-21T04:09:39.233Z,60.61
2023-05-21T04:10:44.705Z,60.82
2023-05-21T04:11:50.160Z,61.05
2023-05-21T04:12:55.605Z,60.57
2023-05-21T04:14:01.052Z,60.89
2023-05-21T04:15:06.647Z,60.81
2023-05-21T04:16:12.461Z,61.07
2023-05-21T04:17:17.956Z,60.79
2023-05-21T04:18:23.434Z,60.69
2023-05-21T04:19:29.051Z,60.94
2023-05-21T04:20:34.556Z,61.02
2023-05-21T04:21:40.081Z,60.83
2023-05-21T04:22:45.621Z,60.57
2023-05-21T04:23:51.084Z,60.84
2023-05-21T04:24:56.679Z,60.99
2023-05-21T04:26:02.217Z,60.95
2023-05-21T04:27:07.690Z,60.69
2023-05-21T04:28:13.173Z,60.44
2023-05-21T04:29:18.626Z,60.99
2023-05-21T04:30:24.161Z,60.68
2023-05-21T04:31:29.814Z,60.77
2023-05-21T04:32:35.486Z,60.79
2023-05-21T04:33:40.971Z,60.68
2023-05-21T04:34:46.450Z,60.97
2023-05-21T04:35:51.944Z,60.81
2023-05-21T04:36:57.432Z,61.23
2023-05-21T04:38:04.830Z,60.58
2023-05-21T04:39:10.331Z,60.84
2023-05-21T04:40:15.778Z,60.92
2023-05-21T04:41:21.329Z,61.15
2023-05-21T04:42:26.806Z,60.74
2023-05-21T04:43:32.299Z,61.1
2023-05-21T04:44:37.763Z,60.64
2023-05-21T04:45:43.352Z,61.32
2023-05-21T04:46:49.204Z,61.12
2023-05-21T04:47:54.893Z,61.06
2023-05-21T04:49:00.446Z,60.68
2023-05-21T04:50:05.941Z,60.87
2023-05-21T04:51:11.405Z,61.07
2023-05-21T04:52:16.934Z,60.41
2023-05-21T04:53:22.466Z,61.04
2023-05-21T04:54:28.099Z,60.81
2023-05-21T04:55:33.599Z,61.13
2023-05-21T04:56:39.093Z,60.64
2023-05-21T04:57:44.609Z,60.66
2023-05-21T04:58:50.078Z,60.58
2023-05-21T04:59:55.550Z,60.63
2023-05-21T05:01:01.250Z,61
2023-05-21T05:02:06.784Z,61.07
2023-05-21T05:03:12.440Z,60.76
2023-05-21T05:04:18.017Z,60.93
2023-05-21T05:05:23.557Z,60.95
2023-05-21T05:06:29.028Z,60.44
2023-05-21T05:07:34.525Z,60.59
2023-05-21T05:08:39.984Z,61.04
2023-05-21T05:09:45.515Z,61.32
2023-05-21T05:10:51.025Z,61.08
2023-05-21T05:11:56.507Z,60.66
2023-05-21T05:13:02.010Z,61.06
2023-05-21T05:14:07.492Z,60.94
2023-05-21T05:15:12.981Z,60.7
2023-05-21T05:16:18.692Z,61.13
2023-05-21T05:17:24.257Z,61.02
2023-05-21T05:18:31.973Z,61.12
2023-05-21T05:19:37.535Z,60.98
2023-05-21T05:20:43.000Z,61.06
2023-05-21T05:21:48.486Z,60.54
2023-05-21T05:22:53.994Z,60.92
2023-05-21T05:23:59.458Z,61.14
2023-05-21T05:25:04.932Z,60.86
2023-05-21T05:26:10.455Z,61.28
2023-05-21T05:27:16.043Z,60.72
2023-05-21T05:28:21.505Z,61.06
2023-05-21T05:29:27.220Z,60.82
2023-05-21T05:30:32.706Z,61.35
2023-05-21T05:31:38.186Z,60.88
2023-05-21T05:32:43.821Z,61.43
2023-05-21T05:33:49.348Z,60.78
2023-05-21T05:34:54.839Z,60.63
2023-05-21T05:36:00.344Z,61.21
2023-05-21T05:37:05.829Z,60.77
2023-05-21T05:38:11.321Z,60.8
2023-05-21T05:39:16.768Z,61.08
2023-05-21T05:40:22.239Z,60.97
2023-05-21T05:41:27.692Z,60.61
2023-05-21T05:42:33.197Z,60.39
2023-05-21T05:43:38.663Z,61.41
2023-05-21T05:44:44.131Z,60.44
2023-05-21T05:45:49.687Z,61.44
2023-05-21T05:46:55.183Z,61.56
2023-05-21T05:48:00.819Z,61.08
2023-05-21T05:49:06.344Z,60.89
2023-05-21T05:50:11.797Z,61.12
2023-05-21T05:51:17.253Z,61.2
2023-05-21T05:52:22.826Z,60.76
2023-05-21T05:53:28.297Z,60.5
2023-05-21T05:54:33.753Z,61.42
2023-05-21T05:55:40.059Z,61.28
2023-05-21T05:56:45.534Z,60.58
2023-05-21T05:57:51.018Z,60.68
2023-05-21T05:58:56.517Z,61.24
2023-05-21T06:00:02.232Z,61.16
2023-05-21T06:01:07.719Z,61.04
2023-05-21T06:02:13.305Z,61.07
2023-05-21T06:03:19.211Z,60.6
2023-05-21T06:04:24.752Z,60.99
2023-05-21T06:05:30.391Z,61.39
2023-05-21T06:06:35.939Z,60.74
2023-05-21T06:07:41.419Z,61.41
2023-05-21T06:08:46.890Z,60.68
2023-05-21T06:09:52.372Z,60.9
2023-05-21T06:10:57.830Z,61.3
2023-05-21T06:12:03.297Z,61.11
2023-05-21T06:13:09.009Z,60.91
2023-05-21T06:14:14.498Z,60.92
2023-05-21T06:15:20.030Z,60.57
2023-05-21T06:16:25.698Z,61.22
2023-05-21T06:17:31.348Z,61.34
2023-05-21T06:18:36.825Z,61.09
2023-05-21T06:19:42.303Z,60.79
2023-05-21T06:20:47.791Z,60.52
2023-05-21T06:21:53.205Z,60.86
2023-05-21T06:22:58.644Z,60.99
2023-05-21T06:24:04.102Z,61.07
2023-05-21T06:25:09.589Z,61.21
2023-05-21T06:26:15.086Z,61.08
2023-05-21T06:27:20.650Z,60.79
2023-05-21T06:28:26.133Z,61.27
2023-05-21T06:29:31.562Z,61.27
2023-05-21T06:30:37.003Z,61.1
2023-05-21T06:31:42.523Z,61.2
2023-05-21T06:32:48.290Z,61.48
2023-05-21T06:33:54.291Z,61.24
2023-05-21T06:34:59.878Z,60.54
2023-05-21T06:36:05.343Z,60.4
2023-05-21T06:37:10.805Z,61.21
2023-05-21T06:38:16.281Z,61.13
2023-05-21T06:39:21.862Z,61.09
2023-05-21T06:40:27.456Z,60.98
2023-05-21T06:41:33.025Z,61.05
2023-05-21T06:42:38.521Z,60.78
2023-05-21T06:43:44.010Z,61.31
2023-05-21T06:44:49.504Z,61.06
2023-05-21T06:45:55.408Z,61.14
2023-05-21T06:47:00.944Z,61.31
2023-05-21T06:48:06.541Z,61.31
2023-05-21T06:49:14.848Z,60.93
2023-05-21T06:50:20.338Z,60.78
2023-05-21T06:51:25.790Z,60.61
2023-05-21T06:52:31.259Z,60.94
2023-05-21T06:53:36.695Z,61.02
2023-05-21T06:54:42.188Z,61.39
2023-05-21T06:55:47.783Z,61.56
2023-05-21T06:56:53.314Z,61.04
2023-05-21T06:57:58.782Z,60.5
2023-05-21T06:59:04.232Z,61.39
2023-05-21T07:00:09.742Z,60.98
2023-05-21T07:01:15.316Z,61.3
2023-05-21T07:02:21.070Z,61.19
2023-05-21T07:03:27.134Z,61.33
2023-05-21T07:04:32.770Z,60.84
2023-05-21T07:05:39.341Z,61.09
2023-05-21T07:06:45.116Z,61.07
2023-05-21T07:07:50.684Z,61.11
2023-05-21T07:08:56.145Z,60.98
2023-05-21T07:10:01.747Z,60.56
2023-05-21T07:11:07.255Z,61.39
2023-05-21T07:12:12.748Z,60.8
2023-05-21T07:13:18.196Z,61.04
2023-05-21T07:14:23.667Z,61.38
2023-05-21T07:15:29.192Z,61.03
2023-05-21T07:16:34.979Z,60.19
2023-05-21T07:17:40.686Z,58.61
2023-05-21T07:18:46.402Z,58.55
2023-05-21T07:19:51.882Z,57.91
2023-05-21T07:20:57.336Z,58.02
2023-05-21T07:22:03.836Z,58.09
2023-05-21T07:23:09.308Z,58.1
2023-05-21T07:24:14.777Z,57.85
2023-05-21T07:25:20.268Z,57.72
2023-05-21T07:26:26.030Z,58.06
2023-05-21T07:27:31.499Z,58.05
2023-05-21T07:28:36.952Z,57.74
2023-05-21T07:29:42.398Z,58.28
2023-05-21T07:30:48.123Z,57.89
2023-05-21T07:31:53.651Z,58.85
2023-05-21T07:33:00.262Z,58.53
2023-05-21T07:34:05.761Z,58.03
2023-05-21T07:35:11.335Z,57.98
2023-05-21T07:36:16.908Z,58.49
2023-05-21T07:37:22.558Z,58.03
2023-05-21T07:38:30.574Z,57.84
2023-05-21T07:39:36.023Z,57.93
2023-05-21T07:40:41.512Z,57.67
2023-05-21T07:41:47.001Z,57.63
2023-05-21T07:42:52.497Z,57.76
2023-05-21T07:43:57.999Z,57.86
2023-05-21T07:45:03.451Z,57.56
2023-05-21T07:46:09.061Z,57.8
2023-05-21T07:47:14.606Z,57.35
2023-05-21T07:48:20.113Z,57.59
2023-05-21T07:49:25.610Z,57.72
2023-05-21T07:50:31.071Z,57.5
2023-05-21T07:51:36.540Z,57.77
2023-05-21T07:52:42.138Z,57.26
2023-05-21T07:53:47.680Z,57.6
2023-05-21T07:54:53.127Z,57.37
2023-05-21T07:55:58.609Z,57.2
2023-05-21T07:57:04.126Z,57.12
2023-05-21T07:58:09.721Z,57.26
2023-05-21T07:59:16.676Z,57.27
2023-05-21T08:00:22.190Z,57.16
2023-05-21T08:01:27.630Z,57.18
2023-05-21T08:02:33.377Z,57
2023-05-21T08:03:39.306Z,57.17
2023-05-21T08:04:45.074Z,57.1
2023-05-21T08:05:50.641Z,57.43
2023-05-21T08:06:56.127Z,57.45
2023-05-21T08:08:01.600Z,57.43
2023-05-21T08:09:07.137Z,57.45
2023-05-21T08:10:12.628Z,57.38
2023-05-21T08:11:18.093Z,57.4
2023-05-21T08:12:23.556Z,57.56
2023-05-21T08:13:29.030Z,57.47
2023-05-21T08:14:34.664Z,57.56
2023-05-21T08:15:40.563Z,57.44
2023-05-21T08:16:46.350Z,57.61
2023-05-21T08:17:52.010Z,57.5
2023-05-21T08:18:57.649Z,57.43
2023-05-21T08:20:03.145Z,57.43
2023-05-21T08:21:08.659Z,57.44
2023-05-21T08:22:14.153Z,57.42
2023-05-21T08:23:19.618Z,57.58
2023-05-21T08:24:25.085Z,57.36
2023-05-21T08:25:30.560Z,57.48
2023-05-21T08:26:36.019Z,57.44
2023-05-21T08:27:41.511Z,57.29
2023-05-21T08:28:46.995Z,57.52
2023-05-21T08:29:52.552Z,57.27
2023-05-21T08:30:57.997Z,57.44
2023-05-21T08:32:03.644Z,57.57
2023-05-21T08:33:09.464Z,57.55
2023-05-21T08:34:14.991Z,57.16
2023-05-21T08:35:20.492Z,56.77
2023-05-21T08:36:25.958Z,55.93
2023-05-21T08:37:31.409Z,55.4
2023-05-21T08:38:36.894Z,55
2023-05-21T08:39:42.411Z,54.54
2023-05-21T08:40:50.159Z,54.64
2023-05-21T08:41:55.615Z,55.24
2023-05-21T08:43:01.075Z,54.64
2023-05-21T08:44:06.603Z,55.36
2023-05-21T08:45:14.406Z,54.73
2023-05-21T08:46:20.119Z,54.86
2023-05-21T08:47:25.751Z,54.62
2023-05-21T08:48:31.241Z,53.88
2023-05-21T08:49:36.829Z,53.68
2023-05-21T08:50:42.339Z,54.63
2023-05-21T08:51:48.033Z,53.5
2023-05-21T08:52:53.589Z,53.91
2023-05-21T08:53:59.096Z,53.12
2023-05-21T08:55:04.560Z,53.17
2023-05-21T08:56:10.027Z,52.34
2023-05-21T08:57:15.529Z,52.87
2023-05-21T08:58:20.996Z,52.76
2023-05-21T08:59:26.545Z,52.9
2023-05-21T09:00:32.081Z,52.4
2023-05-21T09:01:37.696Z,52.44
2023-05-21T09:02:43.707Z,52.32
2023-05-21T09:03:49.309Z,52.98
2023-05-21T09:04:54.802Z,52.51
2023-05-21T09:06:00.279Z,51.89
2023-05-21T09:07:05.935Z,51.96
2023-05-21T09:08:11.420Z,51.88
2023-05-21T09:09:16.910Z,51.58
2023-05-21T09:10:22.557Z,51.63
2023-05-21T09:11:28.046Z,52.06
2023-05-21T09:12:33.581Z,51.96
2023-05-21T09:13:41.575Z,52.08
2023-05-21T09:14:47.047Z,51.82
2023-05-21T09:15:52.530Z,51.9
2023-05-21T09:16:58.145Z,51.42
2023-05-21T09:18:03.912Z,51.14
2023-05-21T09:19:10.488Z,51.34
2023-05-21T09:20:16.607Z,51.11
2023-05-21T09:21:22.285Z,51.44
2023-05-21T09:22:27.777Z,51.76
2023-05-21T09:23:33.303Z,51.46
2023-05-21T09:24:39.356Z,51.38
2023-05-21T09:25:44.840Z,51.44
2023-05-21T09:26:50.333Z,51.37
2023-05-21T09:27:55.798Z,51.41
2023-05-21T09:29:01.298Z,51.57
2023-05-21T09:30:06.777Z,51.58
2023-05-21T09:31:12.369Z,52.11
2023-05-21T09:32:17.911Z,51.99
2023-05-21T09:33:23.371Z,51.51
2023-05-21T09:34:28.833Z,51.5
2023-05-21T09:35:35.214Z,51.55
2023-05-21T09:36:41.605Z,51.92
2023-05-21T09:37:47.122Z,52.07
2023-05-21T09:38:52.633Z,52.13
2023-05-21T09:39:58.166Z,52.31
2023-05-21T09:41:03.714Z,52.4
2023-05-21T09:42:09.202Z,52.24
2023-05-21T09:43:14.695Z,50.63
2023-05-21T09:44:20.160Z,52.01
2023-05-21T09:45:25.696Z,51.19
2023-05-21T09:46:31.348Z,52.01
2023-05-21T09:47:36.943Z,52.25
2023-05-21T09:48:42.463Z,51.74
2023-05-21T09:49:47.944Z,52.21
2023-05-21T09:50:53.440Z,51.8
2023-05-21T09:51:58.946Z,52.34
2023-05-21T09:53:04.407Z,51.83
2023-05-21T09:54:09.921Z,52.27
2023-05-21T09:55:15.423Z,52.06
2023-05-21T09:56:20.914Z,51.85
2023-05-21T09:57:26.410Z,52.12
2023-05-21T09:58:31.890Z,51.99
2023-05-21T09:59:37.331Z,52.14
2023-05-21T10:00:42.918Z,51.77
2023-05-21T10:01:48.508Z,52.21
2023-05-21T10:02:54.164Z,52.04
2023-05-21T10:03:59.968Z,52.27
2023-05-21T10:05:05.484Z,52.24
2023-05-21T10:06:13.244Z,52.11
2023-05-21T10:07:18.782Z,51.64
2023-05-21T10:08:24.247Z,52.23
2023-05-21T10:09:29.712Z,51.75
2023-05-21T10:10:35.415Z,52.11
2023-05-21T10:11:41.048Z,51.84
2023-05-21T10:12:46.498Z,51.14
2023-05-21T10:13:51.960Z,51.44
2023-05-21T10:14:57.454Z,51.65
2023-05-21T10:16:03.037Z,51.87
2023-05-21T10:17:08.529Z,51.9
2023-05-21T10:18:14.083Z,51.74
2023-05-21T10:19:19.696Z,51.72
2023-05-21T10:20:25.177Z,50.83
2023-05-21T10:21:30.643Z,51.4
2023-05-21T10:22:36.090Z,51.44
2023-05-21T10:23:41.598Z,51.26
2023-05-21T10:24:47.082Z,51.55
2023-05-21T10:25:52.526Z,51.07
2023-05-21T10:26:58.117Z,51.42
2023-05-21T10:28:03.623Z,51.27
2023-05-21T10:29:09.109Z,51.51
2023-05-21T10:30:14.549Z,51.36
2023-05-21T10:31:20.090Z,51.5
2023-05-21T10:32:26.123Z,51.76
2023-05-21T10:33:31.913Z,51.39
2023-05-21T10:34:37.531Z,51.3
2023-05-21T10:35:43.000Z,51.04
2023-05-21T10:36:48.499Z,50.97
2023-05-21T10:37:54.004Z,50.54
2023-05-21T10:38:59.442Z,49.83
2023-05-21T10:40:04.957Z,50.17
2023-05-21T10:41:10.420Z,49.97
2023-05-21T10:42:15.859Z,49.83
2023-05-21T10:43:21.310Z,49.84
2023-05-21T10:44:26.772Z,49.24
2023-05-21T10:45:32.364Z,49.12
2023-05-21T10:46:37.916Z,49.07
2023-05-21T10:47:43.452Z,49.36
2023-05-21T10:48:48.973Z,49.29
2023-05-21T10:49:54.462Z,49.25
2023-05-21T10:50:59.920Z,49.32
2023-05-21T10:52:05.369Z,49.34
2023-05-21T10:53:13.523Z,49.42
2023-05-21T10:54:19.011Z,49.28
2023-05-21T10:55:24.502Z,49.1
2023-05-21T10:56:30.047Z,48.98
2023-05-21T10:57:35.543Z,48.9
2023-05-21T10:58:40.994Z,48.85
2023-05-21T10:59:46.496Z,49.1
2023-05-21T11:00:52.098Z,49.22
2023-05-21T11:01:57.607Z,49.18
2023-05-21T11:03:03.338Z,48.95
2023-05-21T11:04:08.963Z,48.96
2023-05-21T11:05:14.467Z,48.94
2023-05-21T11:06:19.915Z,49.21
2023-05-21T11:07:25.431Z,48.99
2023-05-21T11:08:30.914Z,49.06
2023-05-21T11:09:36.542Z,48.84
2023-05-21T11:10:42.650Z,48.88
2023-05-21T11:11:48.133Z,49.58
2023-05-21T11:12:53.597Z,49.69
2023-05-21T11:13:59.034Z,49.75
2023-05-21T11:15:04.665Z,49.89
2023-05-21T11:16:10.165Z,50.07
2023-05-21T11:17:16.094Z,50.04
2023-05-21T11:18:21.665Z,50.01
2023-05-21T11:19:27.349Z,50.23
2023-05-21T11:20:32.951Z,50.15
2023-05-21T11:21:38.480Z,50.34
2023-05-21T11:22:44.016Z,50.45
2023-05-21T11:23:49.509Z,50.29
2023-05-21T11:24:54.959Z,50.38
2023-05-21T11:26:00.493Z,50.09
2023-05-21T11:27:05.943Z,50.41
2023-05-21T11:28:11.438Z,50.06
2023-05-21T11:29:16.897Z,50.32
2023-05-21T11:30:22.389Z,50.35
2023-05-21T11:31:28.055Z,50.23
2023-05-21T11:32:33.693Z,50.4
2023-05-21T11:33:39.155Z,50.38
2023-05-21T11:34:44.676Z,50.45
2023-05-21T11:35:50.108Z,50.39
2023-05-21T11:36:55.608Z,50.58
2023-05-21T11:38:01.077Z,50.39
2023-05-21T11:39:06.503Z,50.46
2023-05-21T11:40:11.969Z,50.29
2023-05-21T11:41:17.421Z,50.45
2023-05-21T11:42:22.867Z,50.36
2023-05-21T11:43:28.329Z,50.31
2023-05-21T11:44:33.806Z,50.03
2023-05-21T11:45:39.287Z,50.14
2023-05-21T11:46:44.862Z,50.01
2023-05-21T11:47:50.460Z,50.14
2023-05-21T11:48:56.128Z,50.21
2023-05-21T11:50:01.679Z,50.04
2023-05-21T11:51:07.273Z,50.1
2023-05-21T11:52:12.745Z,49.87
2023-05-21T11:53:18.234Z,49.87
2023-05-21T11:54:23.753Z,49.94
2023-05-21T11:55:29.275Z,49.49
2023-05-21T11:56:34.791Z,49.42
2023-05-21T11:57:40.291Z,49.3
2023-05-21T11:58:45.745Z,49.5
2023-05-21T11:59:51.236Z,49.61
2023-05-21T12:00:56.755Z,49.71
2023-05-21T12:02:02.308Z,49.61
2023-05-21T12:03:08.138Z,49.74
2023-05-21T12:04:14.058Z,50.11
2023-05-21T12:05:19.670Z,49.7
2023-05-21T12:06:25.502Z,50.02
2023-05-21T12:07:31.091Z,49.87
2023-05-21T12:08:36.694Z,50.14
2023-05-21T12:09:42.164Z,49.96
2023-05-21T12:10:49.088Z,50.75
2023-05-21T12:11:54.594Z,49.21
2023-05-21T12:13:00.553Z,49.66
2023-05-21T12:14:06.138Z,49.9
2023-05-21T12:15:11.714Z,49.83
2023-05-21T12:16:17.299Z,49.75
2023-05-21T12:17:22.884Z,49.78
2023-05-21T12:18:28.457Z,49.78
2023-05-21T12:19:34.342Z,49.84
2023-05-21T12:20:40.499Z,49.93
2023-05-21T12:21:45.982Z,49.98
2023-05-21T12:22:51.533Z,50.07
2023-05-21T12:23:57.137Z,50.09
2023-05-21T12:25:02.659Z,50.2
2023-05-21T12:26:08.165Z,50.21
2023-05-21T12:27:13.653Z,50.26
2023-05-21T12:28:19.157Z,50.28
2023-05-21T12:29:24.620Z,50.32
2023-05-21T12:30:30.175Z,50.22
2023-05-21T12:31:35.907Z,50.25
2023-05-21T12:32:41.621Z,49.97
2023-05-21T12:33:47.180Z,50.27
2023-05-21T12:34:52.696Z,50.14
2023-05-21T12:35:58.306Z,50.15
2023-05-21T12:37:03.847Z,50.2
2023-05-21T12:38:09.289Z,50.2
2023-05-21T12:39:14.795Z,50.17
2023-05-21T12:40:20.338Z,50.15
2023-05-21T12:41:28.051Z,50.16
2023-05-21T12:42:33.689Z,50.11
2023-05-21T12:43:39.153Z,50.11
2023-05-21T12:44:44.695Z,50.19
2023-05-21T12:45:50.387Z,50.13
2023-05-21T12:46:55.871Z,50.11
2023-05-21T12:48:01.552Z,50.14
2023-05-21T12:49:07.045Z,50.12
2023-05-21T12:50:12.750Z,50.06
2023-05-21T12:51:18.269Z,50.04
2023-05-21T12:52:23.748Z,50.08
2023-05-21T12:53:29.254Z,50.05
2023-05-21T12:54:34.698Z,50.07
2023-05-21T12:55:40.277Z,50.05
2023-05-21T12:56:45.769Z,50.03
2023-05-21T12:57:51.247Z,50.05
2023-05-21T12:58:56.929Z,49.96
2023-05-21T13:00:02.388Z,49.99
2023-05-21T13:01:08.293Z,49.95
2023-05-21T13:02:13.766Z,49.95
2023-05-21T13:03:19.459Z,49.97
2023-05-21T13:04:25.095Z,49.92
2023-05-21T13:05:30.675Z,49.95
2023-05-21T13:06:36.191Z,49.91
2023-05-21T13:07:41.655Z,49.89
2023-05-21T13:08:47.125Z,49.85
2023-05-21T13:09:52.604Z,49.92
2023-05-21T13:10:58.072Z,49.9
2023-05-21T13:12:03.552Z,49.92
2023-05-21T13:13:09.052Z,49.86
2023-05-21T13:14:14.534Z,49.86
2023-05-21T13:15:20.056Z,49.85
2023-05-21T13:16:25.810Z,49.82
2023-05-21T13:17:31.447Z,49.82
2023-05-21T13:18:36.980Z,49.82
2023-05-21T13:19:42.458Z,49.78
2023-05-21T13:20:47.927Z,49.79
2023-05-21T13:21:53.378Z,49.82
2023-05-21T13:22:58.935Z,49.8
2023-05-21T13:24:04.485Z,49.81
2023-05-21T13:25:10.010Z,49.77
2023-05-21T13:26:15.470Z,49.73
2023-05-21T13:27:20.951Z,49.77
2023-05-21T13:28:26.413Z,49.68
2023-05-21T13:29:31.892Z,49.73
2023-05-21T13:30:38.663Z,49.71
2023-05-21T13:31:44.250Z,49.68
2023-05-21T13:32:50.464Z,49.65
2023-05-21T13:33:56.219Z,49.63
2023-05-21T13:35:01.693Z,49.6
2023-05-21T13:36:07.182Z,49.56
2023-05-21T13:37:12.653Z,49.57
2023-05-21T13:38:18.104Z,49.57
2023-05-21T13:39:23.651Z,49.43
2023-05-21T13:40:29.094Z,49.56
2023-05-21T13:41:34.607Z,49.48
2023-05-21T13:42:40.351Z,49.4
2023-05-21T13:43:45.837Z,49.42
2023-05-21T13:44:51.371Z,49.41
2023-05-21T13:45:56.826Z,49.46
2023-05-21T13:47:02.652Z,49.36
2023-05-21T13:48:08.342Z,49.41
2023-05-21T13:49:16.107Z,49.35
2023-05-21T13:50:21.588Z,49.35
2023-05-21T13:51:41.415Z,49.34
2023-05-21T13:52:46.959Z,49.29
2023-05-21T13:53:52.791Z,49.3
2023-05-21T13:54:58.800Z,49.27
2023-05-21T13:56:04.237Z,49.29
2023-05-21T13:57:09.673Z,49.24
2023-05-21T13:58:15.159Z,49.18
2023-05-21T13:59:20.612Z,49.17
2023-05-21T14:00:26.088Z,49.13
2023-05-21T14:01:31.878Z,49.14
2023-05-21T14:02:37.925Z,49.18
2023-05-21T14:03:43.615Z,49.14
2023-05-21T14:04:49.122Z,49.09
2023-05-21T14:05:54.583Z,49.02
2023-05-21T14:07:00.250Z,49
2023-05-21T14:08:05.754Z,49.05